Aviation Digital Data Service (ADDS)

Output produced by TAFs form (0726 UTC 23 September 2017)
found at http://www.aviationweather.gov/adds/tafs/
 
METAR text: RJCO 230637Z 25018KT 9999 SCT015 BKN020 BKN120 20/17 Q1013 RMK 3ST015 5CU020 7AC120 A2993
Conditions at: RJCO (SAPPORO (JGSDF/C, JP) observed 0637 UTC 23 September 2017
Temperature: 20.0°C (68°F)
Dewpoint: 17.0°C (63°F) [RH = 83%]
Pressure (altimeter): 29.91 inches Hg (1013.0 mb)
Winds: from the WSW (250 degrees) at 21 MPH (18 knots; 9.4 m/s)
Visibility: 6 or more miles (10+ km)
Ceiling: 2000 feet AGL
Clouds: scattered clouds at 1500 feet AGL
broken clouds at 2000 feet AGL
broken clouds at 12000 feet AGL
Weather: no significant weather observed at this time